createdAt,value
2017-12-05T00:00:53.008Z,17.97
2017-12-05T00:03:21.082Z,17.10
2017-12-05T00:05:47.388Z,17.60
2017-12-05T00:08:14.404Z,17.17
2017-12-05T00:10:40.675Z,17.13
2017-12-05T00:13:07.687Z,18.13
2017-12-05T00:15:34.065Z,18.73
2017-12-05T00:18:01.049Z,18.90
2017-12-05T00:20:27.354Z,20.97
2017-12-05T00:22:53.666Z,20.13
2017-12-05T00:25:20.711Z,19.57
2017-12-05T00:27:47.692Z,19.07
2017-12-05T00:30:14.049Z,19.20
2017-12-05T00:32:40.305Z,18.90
2017-12-05T00:35:07.255Z,18.30
2017-12-05T00:37:34.274Z,17.57
2017-12-05T00:40:00.645Z,19.03
2017-12-05T00:42:27.657Z,18.20
2017-12-05T00:44:53.929Z,18.10
2017-12-05T00:47:20.229Z,18.30
2017-12-05T00:49:47.265Z,18.20
2017-12-05T00:52:13.575Z,16.70
2017-12-05T00:54:39.798Z,18.27
2017-12-05T00:57:06.030Z,18.07
2017-12-05T00:59:32.314Z,18.30
2017-12-05T01:01:59.363Z,16.67
2017-12-05T01:04:26.335Z,17.30
2017-12-05T01:06:52.638Z,16.47
2017-12-05T01:09:19.635Z,19.97
2017-12-05T01:11:45.906Z,17.70
2017-12-05T01:14:12.897Z,19.70
2017-12-05T01:16:39.123Z,18.23
2017-12-05T01:19:05.430Z,18.33
2017-12-05T01:21:31.733Z,18.00
2017-12-05T01:23:58.733Z,18.60
2017-12-05T01:26:24.966Z,17.60
2017-12-05T01:28:51.211Z,18.60
2017-12-05T01:31:17.483Z,17.80
2017-12-05T01:33:44.470Z,19.17
2017-12-05T01:36:10.740Z,19.60
2017-12-05T01:38:37.716Z,19.13
2017-12-05T01:41:04.013Z,20.30
2017-12-05T01:43:30.374Z,19.03
2017-12-05T01:45:56.657Z,20.10
2017-12-05T01:48:22.978Z,18.70
2017-12-05T01:50:49.254Z,19.43
2017-12-05T01:53:16.328Z,20.63
2017-12-05T01:55:42.641Z,19.97
2017-12-05T01:58:08.916Z,17.07
2017-12-05T02:00:41.282Z,18.80
2017-12-05T02:03:07.611Z,18.97
2017-12-05T02:05:33.892Z,19.97
2017-12-05T02:08:00.928Z,19.40
2017-12-05T02:10:27.247Z,19.50
2017-12-05T02:12:53.550Z,20.33
2017-12-05T02:15:19.837Z,20.10
2017-12-05T02:17:46.169Z,19.03
2017-12-05T02:20:12.494Z,19.47
2017-12-05T02:22:39.524Z,20.10
2017-12-05T02:25:06.553Z,18.37
2017-12-05T02:27:32.789Z,17.87
2017-12-05T02:29:59.066Z,19.00
2017-12-05T02:32:25.347Z,19.07
2017-12-05T02:34:52.358Z,19.07
2017-12-05T02:37:18.606Z,17.10
2017-12-05T02:39:44.917Z,20.07
2017-12-05T02:42:11.209Z,18.40
2017-12-05T02:44:38.239Z,18.80
2017-12-05T02:47:05.285Z,19.50
2017-12-05T02:49:32.317Z,19.90
2017-12-05T02:51:58.611Z,19.57
2017-12-05T02:54:24.910Z,19.33
2017-12-05T02:56:51.929Z,19.23
2017-12-05T02:59:19.045Z,18.30
2017-12-05T03:01:45.339Z,19.30
2017-12-05T03:04:12.462Z,19.80
2017-12-05T03:06:38.707Z,19.93
2017-12-05T03:09:05.704Z,20.70
2017-12-05T03:11:31.985Z,17.70
2017-12-05T03:13:59.053Z,19.60
2017-12-05T03:16:25.382Z,19.77
2017-12-05T03:18:51.694Z,21.30
2017-12-05T03:21:18.764Z,19.13
2017-12-05T03:23:44.992Z,20.60
2017-12-05T03:26:11.321Z,20.80
2017-12-05T03:28:37.572Z,19.90
2017-12-05T03:31:03.827Z,20.10
2017-12-05T03:33:30.078Z,20.20
2017-12-05T03:35:57.050Z,19.20
2017-12-05T03:38:23.357Z,20.60
2017-12-05T03:40:50.457Z,21.57
2017-12-05T03:43:16.711Z,21.20
2017-12-05T03:45:42.950Z,21.77
2017-12-05T03:48:09.241Z,21.70
2017-12-05T03:50:35.605Z,21.80
2017-12-05T03:53:01.915Z,22.07
2017-12-05T03:55:28.201Z,19.90
2017-12-05T03:57:54.412Z,21.47
2017-12-05T04:00:21.422Z,20.83
2017-12-05T04:02:47.709Z,21.70
2017-12-05T04:05:13.964Z,20.47
2017-12-05T04:07:40.204Z,20.20
2017-12-05T04:10:06.481Z,21.10
2017-12-05T04:12:33.485Z,20.23
2017-12-05T04:14:59.752Z,22.47
2017-12-05T04:17:26.795Z,18.60
2017-12-05T04:19:53.767Z,22.20
2017-12-05T04:22:20.041Z,23.07
2017-12-05T04:24:46.309Z,22.63
2017-12-05T04:27:13.328Z,21.57
2017-12-05T04:29:47.801Z,21.70
2017-12-05T04:32:14.067Z,21.37
2017-12-05T04:34:40.299Z,21.60
2017-12-05T04:37:07.513Z,19.60
2017-12-05T04:39:33.877Z,20.57
2017-12-05T04:42:00.798Z,21.97
2017-12-05T04:44:27.117Z,20.47
2017-12-05T04:46:53.551Z,19.17
2017-12-05T04:49:20.562Z,22.87
2017-12-05T04:51:46.849Z,21.27
2017-12-05T04:54:13.197Z,20.73
2017-12-05T04:56:39.509Z,19.23
2017-12-05T04:59:05.825Z,20.60
2017-12-05T05:01:32.243Z,19.53
2017-12-05T05:03:58.559Z,20.20
2017-12-05T05:06:25.605Z,19.80
2017-12-05T05:08:52.624Z,21.03
2017-12-05T05:11:18.952Z,20.23
2017-12-05T05:13:45.243Z,20.00
2017-12-05T05:16:12.093Z,21.43
2017-12-05T05:18:38.458Z,19.40
2017-12-05T05:21:04.774Z,20.40
2017-12-05T05:23:50.754Z,19.73
2017-12-05T05:26:17.476Z,21.50
2017-12-05T05:28:44.957Z,22.13
2017-12-05T05:31:11.221Z,21.30
2017-12-05T05:33:37.537Z,19.60
2017-12-05T05:36:03.805Z,18.60
2017-12-05T05:38:30.786Z,20.83
2017-12-05T05:40:57.050Z,20.27
2017-12-05T05:43:24.161Z,19.50
2017-12-05T05:45:50.441Z,18.83
2017-12-05T05:48:17.444Z,18.43
2017-12-05T05:50:43.713Z,20.10
2017-12-05T05:53:10.758Z,18.93
2017-12-05T05:55:37.011Z,19.57
2017-12-05T05:58:03.303Z,18.70
2017-12-05T06:00:29.526Z,18.60
2017-12-05T06:02:55.836Z,21.70
2017-12-05T06:05:22.076Z,22.37
2017-12-05T06:07:48.385Z,20.47
2017-12-05T06:10:14.688Z,18.70
2017-12-05T06:12:40.978Z,19.93
2017-12-05T06:15:07.278Z,19.90
2017-12-05T06:17:33.552Z,20.57
2017-12-05T06:19:59.845Z,20.27
2017-12-05T06:22:26.097Z,18.77
2017-12-05T06:24:52.359Z,19.67
2017-12-05T06:27:19.417Z,18.97
2017-12-05T06:29:52.517Z,18.50
2017-12-05T06:32:18.781Z,19.37
2017-12-05T06:34:45.059Z,20.57
2017-12-05T06:37:11.311Z,19.27
2017-12-05T06:39:37.595Z,19.43
2017-12-05T06:42:04.637Z,18.07
2017-12-05T06:44:30.882Z,19.93
2017-12-05T06:46:57.915Z,20.07
2017-12-05T06:49:24.919Z,19.67
2017-12-05T06:51:51.203Z,19.90
2017-12-05T06:54:17.503Z,18.40
2017-12-05T06:56:43.822Z,19.13
2017-12-05T06:59:10.192Z,18.87
2017-12-05T07:01:37.288Z,20.83
2017-12-05T07:04:03.563Z,19.67
2017-12-05T07:06:29.866Z,22.90
2017-12-05T07:08:56.185Z,18.40
2017-12-05T07:11:22.529Z,19.73
2017-12-05T07:13:48.803Z,21.40
2017-12-05T07:16:15.894Z,20.40
2017-12-05T07:18:42.242Z,20.90
2017-12-05T07:21:08.523Z,19.73
2017-12-05T07:23:35.565Z,20.10
2017-12-05T07:26:02.613Z,17.70
2017-12-05T07:28:29.653Z,19.97
2017-12-05T07:30:56.711Z,19.73
2017-12-05T07:33:23.107Z,22.23
2017-12-05T07:35:49.367Z,20.37
2017-12-05T07:38:16.369Z,19.43
2017-12-05T07:40:42.650Z,17.97
2017-12-05T07:43:08.927Z,18.30
2017-12-05T07:45:35.287Z,18.97
2017-12-05T07:48:02.333Z,18.20
2017-12-05T07:50:29.362Z,18.27
2017-12-05T07:52:55.700Z,18.17
2017-12-05T07:55:22.013Z,18.20
2017-12-05T07:57:48.336Z,19.77
2017-12-05T08:00:14.630Z,18.10
2017-12-05T08:02:40.935Z,18.70
2017-12-05T08:05:07.262Z,18.63
2017-12-05T08:07:33.650Z,19.07
2017-12-05T08:09:59.986Z,19.10
2017-12-05T08:12:26.292Z,19.80
2017-12-05T08:14:52.623Z,20.00
2017-12-05T08:17:18.975Z,18.67
2017-12-05T08:19:45.312Z,18.93
2017-12-05T08:22:11.639Z,17.17
2017-12-05T08:24:37.954Z,17.17
2017-12-05T08:27:04.258Z,19.30
2017-12-05T08:29:31.354Z,18.20
2017-12-05T08:31:57.689Z,19.40
2017-12-05T08:34:24.050Z,17.57
2017-12-05T08:36:51.169Z,18.93
2017-12-05T08:39:17.514Z,16.90
2017-12-05T08:41:44.572Z,17.00
2017-12-05T08:44:11.611Z,18.70
2017-12-05T08:46:37.917Z,18.23
2017-12-05T08:49:04.246Z,18.53
2017-12-05T08:51:30.459Z,18.80
2017-12-05T08:53:56.740Z,16.57
2017-12-05T08:56:23.753Z,19.30
2017-12-05T08:58:50.054Z,18.80
2017-12-05T09:01:16.354Z,18.93
2017-12-05T09:03:43.453Z,17.07
2017-12-05T09:06:09.794Z,13.37
2017-12-05T09:08:36.107Z,18.73
2017-12-05T09:11:02.381Z,19.17
2017-12-05T09:13:28.669Z,19.30
2017-12-05T09:15:54.997Z,19.40
2017-12-05T09:18:21.259Z,18.57
2017-12-05T09:20:47.568Z,18.20
2017-12-05T09:23:13.849Z,19.07
2017-12-05T09:25:40.881Z,19.17
2017-12-05T09:28:07.127Z,19.00
2017-12-05T09:30:34.178Z,19.10
2017-12-05T09:33:01.234Z,18.30
2017-12-05T09:35:28.289Z,19.23
2017-12-05T09:37:54.560Z,17.77
2017-12-05T09:40:20.901Z,17.20
2017-12-05T09:42:47.223Z,18.00
2017-12-05T09:45:13.542Z,16.80
2017-12-05T09:47:39.854Z,18.97
2017-12-05T09:50:06.139Z,18.00
2017-12-05T09:52:33.213Z,17.37
2017-12-05T09:54:59.538Z,17.30
2017-12-05T09:57:26.571Z,17.87
2017-12-05T09:59:53.665Z,18.30
2017-12-05T10:02:19.949Z,18.77
2017-12-05T10:04:47.071Z,19.07
2017-12-05T10:07:13.374Z,16.70
2017-12-05T10:09:39.718Z,17.90
2017-12-05T10:12:06.003Z,17.17
2017-12-05T10:14:33.077Z,16.00
2017-12-05T10:16:59.453Z,16.57
2017-12-05T10:19:25.742Z,18.83
2017-12-05T10:21:52.089Z,19.33
2017-12-05T10:24:18.449Z,17.30
2017-12-05T10:26:44.762Z,19.07
2017-12-05T10:29:11.081Z,18.17
2017-12-05T10:31:37.406Z,17.50
2017-12-05T10:34:03.655Z,17.90
2017-12-05T10:36:29.904Z,18.00
2017-12-05T10:38:56.952Z,17.00
2017-12-05T10:41:23.223Z,18.70
2017-12-05T10:43:49.478Z,17.67
2017-12-05T10:46:15.835Z,17.50
2017-12-05T10:48:42.156Z,16.80
2017-12-05T10:51:08.452Z,14.43
2017-12-05T10:53:34.722Z,18.30
2017-12-05T10:56:01.006Z,19.33
2017-12-05T10:58:27.318Z,17.37
2017-12-05T11:00:54.323Z,16.70
2017-12-05T11:03:20.613Z,18.23
2017-12-05T11:05:46.910Z,16.10
2017-12-05T11:08:13.984Z,17.80
2017-12-05T11:10:40.268Z,17.37
2017-12-05T11:13:06.503Z,15.67
2017-12-05T11:15:32.819Z,18.10
2017-12-05T11:17:59.097Z,18.00
2017-12-05T11:20:25.439Z,16.93
2017-12-05T11:22:51.786Z,16.87
2017-12-05T11:25:18.108Z,16.30
2017-12-05T11:27:44.334Z,16.50
2017-12-05T11:30:10.666Z,16.70
2017-12-05T11:32:36.928Z,16.30
2017-12-05T11:35:03.167Z,15.33
2017-12-05T11:37:30.155Z,15.47
2017-12-05T11:39:56.423Z,15.77
2017-12-05T11:42:22.712Z,11.70
2017-12-05T11:44:48.980Z,15.23
2017-12-05T11:47:15.275Z,15.27
2017-12-05T11:49:41.628Z,14.87
2017-12-05T11:52:07.938Z,15.37
2017-12-05T11:54:34.257Z,15.00
2017-12-05T11:57:01.300Z,14.50
2017-12-05T11:59:27.561Z,13.53
2017-12-05T12:01:53.870Z,15.50
2017-12-05T12:04:20.135Z,14.60
2017-12-05T12:06:46.519Z,14.80
2017-12-05T12:09:12.815Z,12.57
2017-12-05T12:11:39.802Z,15.60
2017-12-05T12:14:06.717Z,14.93
2017-12-05T12:16:32.998Z,15.03
2017-12-05T12:18:59.202Z,12.60
2017-12-05T12:21:26.224Z,12.57
2017-12-05T12:23:53.273Z,13.00
2017-12-05T12:26:20.306Z,11.80
2017-12-05T12:28:46.609Z,13.17
2017-12-05T12:31:12.845Z,13.57
2017-12-05T12:33:39.149Z,12.30
2017-12-05T12:36:05.442Z,10.67
2017-12-05T12:38:32.503Z,13.60
2017-12-05T12:40:59.536Z,12.63
2017-12-05T12:43:26.549Z,13.83
2017-12-05T12:45:52.826Z,12.60
2017-12-05T12:48:19.866Z,12.47
2017-12-05T12:50:46.866Z,12.00
2017-12-05T12:53:13.154Z,13.17
2017-12-05T12:55:39.501Z,12.40
2017-12-05T12:58:05.767Z,14.90
2017-12-05T13:00:32.114Z,13.03
2017-12-05T13:02:59.134Z,14.60
2017-12-05T13:05:25.447Z,13.37
2017-12-05T13:07:51.733Z,14.50
2017-12-05T13:10:18.718Z,14.73
2017-12-05T13:12:44.949Z,14.50
2017-12-05T13:15:11.242Z,14.53
2017-12-05T13:17:38.232Z,15.50
2017-12-05T13:20:04.476Z,16.70
2017-12-05T13:22:30.749Z,14.63
2017-12-05T13:24:57.746Z,14.50
2017-12-05T13:27:24.065Z,13.93
2017-12-05T13:29:50.839Z,14.30
2017-12-05T13:32:17.103Z,12.87
2017-12-05T13:34:44.133Z,15.83
2017-12-05T13:37:10.452Z,13.40
2017-12-05T13:39:38.249Z,12.90
2017-12-05T13:42:05.278Z,14.03
2017-12-05T13:44:32.367Z,13.40
2017-12-05T13:46:58.675Z,13.83
2017-12-05T13:49:25.682Z,13.47
2017-12-05T13:51:51.931Z,13.80
2017-12-05T13:54:18.908Z,12.33
2017-12-05T13:56:45.158Z,13.57
2017-12-05T13:59:11.889Z,14.10
2017-12-05T14:01:38.198Z,13.53
2017-12-05T14:04:04.479Z,12.10
2017-12-05T14:06:30.714Z,13.97
2017-12-05T14:08:56.973Z,13.33
2017-12-05T14:11:23.987Z,13.60
2017-12-05T14:13:50.224Z,14.20
2017-12-05T14:16:16.487Z,11.50
2017-12-05T14:18:43.571Z,14.67
2017-12-05T14:21:09.918Z,18.37
2017-12-05T14:23:36.159Z,16.77
2017-12-05T14:26:02.451Z,15.77
2017-12-05T14:28:28.690Z,15.77
2017-12-05T14:30:55.032Z,13.70
2017-12-05T14:33:21.258Z,14.87
2017-12-05T14:35:47.504Z,13.67
2017-12-05T14:38:13.820Z,13.10
2017-12-05T14:40:40.135Z,14.20
2017-12-05T14:43:06.398Z,14.50
2017-12-05T14:45:32.761Z,14.60
2017-12-05T14:47:59.835Z,14.67
2017-12-05T14:50:26.080Z,15.57
2017-12-05T14:52:52.338Z,14.33
2017-12-05T14:55:19.323Z,13.37
2017-12-05T14:57:46.372Z,14.93
2017-12-05T15:00:12.684Z,14.30
2017-12-05T15:02:39.633Z,13.10
2017-12-05T15:05:06.625Z,14.33
2017-12-05T15:07:32.842Z,14.03
2017-12-05T15:09:59.103Z,14.70
2017-12-05T15:12:25.401Z,15.23
2017-12-05T15:14:51.655Z,12.97
2017-12-05T15:17:17.907Z,14.60
2017-12-05T15:19:44.926Z,15.20
2017-12-05T15:22:11.268Z,15.60
2017-12-05T15:24:37.509Z,15.87
2017-12-05T15:27:03.804Z,16.13
2017-12-05T15:29:30.024Z,15.30
2017-12-05T15:31:56.259Z,17.83
2017-12-05T15:34:22.482Z,16.00
2017-12-05T15:36:48.767Z,16.00
2017-12-05T15:39:14.999Z,15.10
2017-12-05T15:41:42.025Z,17.33
2017-12-05T15:44:08.335Z,16.70
2017-12-05T15:46:34.647Z,16.33
2017-12-05T15:49:00.838Z,16.20
2017-12-05T15:51:27.856Z,15.40
2017-12-05T15:53:54.068Z,16.57
2017-12-05T15:56:20.338Z,24.17
2017-12-05T15:58:47.388Z,31.73
2017-12-05T16:01:13.707Z,33.47
2017-12-05T16:03:40.695Z,32.97
2017-12-05T16:06:07.030Z,47.13
2017-12-05T16:08:33.343Z,42.40
2017-12-05T16:10:59.588Z,21.50
2017-12-05T16:13:25.827Z,18.40
2017-12-05T16:15:52.059Z,19.63
2017-12-05T16:18:18.316Z,20.20
2017-12-05T16:20:44.643Z,18.20
2017-12-05T16:23:10.844Z,17.07
2017-12-05T16:25:37.080Z,18.70
2017-12-05T16:28:03.323Z,16.40
2017-12-05T16:30:29.584Z,16.90
2017-12-05T16:32:56.666Z,17.17
2017-12-05T16:35:22.980Z,17.60
2017-12-05T16:37:49.289Z,18.23
2017-12-05T16:40:16.303Z,17.60
2017-12-05T16:42:42.580Z,17.30
2017-12-05T16:45:09.544Z,17.30
2017-12-05T16:47:35.811Z,16.67
2017-12-05T16:50:02.024Z,17.60
2017-12-05T16:52:28.308Z,17.10
2017-12-05T16:55:02.390Z,16.47
2017-12-05T16:57:28.658Z,16.17
2017-12-05T16:59:54.974Z,16.30
2017-12-05T17:02:22.022Z,18.77
2017-12-05T17:04:49.042Z,16.43
2017-12-05T17:07:15.307Z,16.77
2017-12-05T17:09:41.623Z,17.93
2017-12-05T17:12:08.726Z,17.97
2017-12-05T17:14:35.099Z,17.00
2017-12-05T17:17:02.088Z,19.67
2017-12-05T17:19:28.439Z,19.40
2017-12-05T17:21:54.699Z,42.83
2017-12-05T17:24:21.755Z,29.50
2017-12-05T17:26:48.772Z,21.60
2017-12-05T17:29:15.026Z,18.47
2017-12-05T17:31:41.295Z,17.83
2017-12-05T17:34:07.578Z,17.80
2017-12-05T17:36:33.936Z,18.50
2017-12-05T17:39:00.992Z,18.43
2017-12-05T17:44:11.216Z,18.80
2017-12-05T17:46:37.434Z,18.30
2017-12-05T17:49:03.695Z,18.10
2017-12-05T17:51:30.679Z,18.30
2017-12-05T17:53:56.925Z,18.70
2017-12-05T17:56:23.144Z,18.47
2017-12-05T17:58:49.474Z,18.83
2017-12-05T18:01:19.390Z,17.40
2017-12-05T18:03:45.794Z,19.40
2017-12-05T18:06:12.104Z,17.80
2017-12-05T18:08:38.336Z,19.10
2017-12-05T18:11:04.669Z,17.63
2017-12-05T18:13:31.685Z,18.60
2017-12-05T18:15:58.007Z,19.43
2017-12-05T18:18:24.371Z,18.20
2017-12-05T18:20:50.738Z,17.47
2017-12-05T18:23:17.051Z,17.60
2017-12-05T18:25:44.087Z,19.23
2017-12-05T18:28:10.482Z,19.07
2017-12-05T18:30:36.728Z,18.77
2017-12-05T18:33:03.017Z,19.10
2017-12-05T18:35:29.334Z,19.60
2017-12-05T18:37:55.657Z,18.03
2017-12-05T18:40:21.983Z,18.67
2017-12-05T18:42:49.033Z,19.57
2017-12-05T18:45:16.114Z,20.50
2017-12-05T18:47:42.481Z,17.33
2017-12-05T18:50:08.845Z,18.87
2017-12-05T18:52:35.802Z,19.27
2017-12-05T18:55:02.139Z,19.47
2017-12-05T18:57:28.423Z,20.90
2017-12-05T18:59:54.682Z,20.90
2017-12-05T19:02:21.772Z,20.77
2017-12-05T19:04:48.071Z,21.10
2017-12-05T19:07:14.387Z,21.50
2017-12-05T19:09:41.417Z,19.87
2017-12-05T19:12:07.734Z,19.73
2017-12-05T19:14:34.020Z,20.47
2017-12-05T19:17:00.269Z,19.87
2017-12-05T19:22:19.615Z,20.03
2017-12-05T19:24:46.712Z,20.93
2017-12-05T19:27:13.080Z,18.83
2017-12-05T19:29:40.174Z,22.37
2017-12-05T19:32:06.388Z,20.83
2017-12-05T19:34:33.437Z,20.20
2017-12-05T19:37:00.487Z,20.47
2017-12-05T19:39:26.723Z,21.17
2017-12-05T19:41:52.973Z,20.73
2017-12-05T19:44:19.234Z,20.43
2017-12-05T19:46:45.471Z,21.43
2017-12-05T19:49:11.682Z,21.00
2017-12-05T19:51:37.917Z,20.20
2017-12-05T19:54:04.166Z,20.50
2017-12-05T19:56:30.456Z,20.80
2017-12-05T19:58:56.779Z,20.40
2017-12-05T20:01:23.001Z,20.90
2017-12-05T20:03:49.309Z,18.27
2017-12-05T20:06:15.577Z,19.80
2017-12-05T20:08:41.817Z,20.20
2017-12-05T20:11:08.184Z,21.20
2017-12-05T20:13:35.162Z,19.80
2017-12-05T20:16:01.458Z,20.73
2017-12-05T20:18:28.524Z,20.00
2017-12-05T20:20:54.773Z,18.83
2017-12-05T20:23:21.052Z,19.30
2017-12-05T20:25:47.445Z,19.93
2017-12-05T20:28:13.716Z,20.00
2017-12-05T20:30:40.678Z,18.97
2017-12-05T20:33:07.648Z,18.90
2017-12-05T20:35:33.926Z,18.80
2017-12-05T20:38:00.197Z,19.20
2017-12-05T20:40:26.398Z,21.03
2017-12-05T20:42:52.665Z,20.30
2017-12-05T20:45:18.917Z,19.73
2017-12-05T20:47:45.205Z,20.33
2017-12-05T20:50:11.380Z,19.53
2017-12-05T20:52:37.600Z,17.80
2017-12-05T20:55:03.824Z,20.10
2017-12-05T20:57:30.144Z,18.73
2017-12-05T20:59:56.441Z,19.43
2017-12-05T21:02:24.309Z,19.50
2017-12-05T21:04:51.269Z,18.20
2017-12-05T21:07:17.567Z,18.40
2017-12-05T21:09:44.501Z,18.60
2017-12-05T21:12:10.713Z,17.90
2017-12-05T21:14:36.863Z,21.40
2017-12-05T21:17:03.089Z,19.87
2017-12-05T21:19:30.041Z,20.60
2017-12-05T21:21:56.982Z,19.47
2017-12-05T21:24:23.906Z,19.87
2017-12-05T21:26:50.130Z,20.70
2017-12-05T21:29:16.352Z,20.03
2017-12-05T21:31:42.581Z,17.83
2017-12-05T21:34:08.832Z,19.83
2017-12-05T21:36:35.205Z,17.30
2017-12-05T21:39:01.654Z,19.53
2017-12-05T21:41:34.980Z,21.63
2017-12-05T21:44:02.193Z,19.70
2017-12-05T21:46:28.536Z,17.80
2017-12-05T21:48:55.396Z,20.20
2017-12-05T21:51:21.883Z,19.40
2017-12-05T21:53:49.094Z,18.50
2017-12-05T21:56:15.564Z,17.83
2017-12-05T21:58:42.674Z,18.57
2017-12-05T22:01:09.175Z,20.17
2017-12-05T22:03:36.421Z,19.10
2017-12-05T22:06:02.636Z,18.43
2017-12-05T22:08:28.812Z,19.17
2017-12-05T22:10:54.993Z,18.13
2017-12-05T22:13:21.936Z,20.20
2017-12-05T22:15:48.173Z,18.47
2017-12-05T22:18:14.406Z,18.13
2017-12-05T22:20:40.589Z,19.97
2017-12-05T22:23:06.820Z,20.60
2017-12-05T22:25:33.836Z,19.40
2017-12-05T22:28:00.045Z,19.43
2017-12-05T22:30:26.289Z,18.43
2017-12-05T22:32:52.481Z,18.37
2017-12-05T22:35:18.704Z,18.93
2017-12-05T22:37:44.952Z,18.70
2017-12-05T22:40:11.133Z,20.33
2017-12-05T22:42:37.320Z,18.20
2017-12-05T22:45:03.580Z,19.03
2017-12-05T22:47:29.758Z,17.50
2017-12-05T22:49:55.980Z,19.80
2017-12-05T22:52:22.152Z,18.20
2017-12-05T22:54:48.325Z,17.93
2017-12-05T22:57:15.221Z,19.07
2017-12-05T22:59:41.409Z,18.27
2017-12-05T23:02:08.352Z,18.50
2017-12-05T23:04:34.523Z,17.53
2017-12-05T23:07:00.740Z,18.27
2017-12-05T23:09:26.941Z,18.20
2017-12-05T23:11:53.137Z,20.00
2017-12-05T23:14:20.114Z,19.50
2017-12-05T23:16:46.325Z,17.70
2017-12-05T23:19:13.240Z,19.23
2017-12-05T23:21:39.411Z,17.93
2017-12-05T23:24:05.646Z,19.07
2017-12-05T23:26:31.816Z,18.60
2017-12-05T23:28:58.018Z,16.33
2017-12-05T23:31:24.266Z,18.20
2017-12-05T23:33:50.449Z,17.80
2017-12-05T23:36:16.653Z,16.70
2017-12-05T23:38:43.593Z,18.17
2017-12-05T23:41:09.754Z,17.17
2017-12-05T23:43:36.014Z,17.47
2017-12-05T23:46:02.217Z,17.93
2017-12-05T23:51:21.475Z,17.17
2017-12-05T23:53:47.658Z,17.80
2017-12-05T23:56:14.647Z,15.90
2017-12-05T23:58:41.536Z,17.17
